Terminal Aerodrome Forecast
Issued by NWS

Home | Current Version | Previous Version | Text Only | Print | Product List | Glossary On
Versions: 1 2 3 4 5 6 7 8 9 10 11 12 13 14 15 16 17 18 19 20 21 22 23 24 25 26 27 28 29 30 31 32 33 34 35 36 37 38 39 40 41 42 43 44 45
000
FTUS43 KGLD 240457 AAA
TAFMCK
TAF AMD
KMCK 240457Z 2405/2424 15010KT P6SM VCTS BKN030CB
      TEMPO 2405/2406 -TSRA SCT030 BKN070CB
     FM240700 15010KT P6SM FEW007 BKN025
     FM240800 14010KT 6SM BR SCT004 OVC015
      TEMPO 2409/2413 3SM -DZ BR OVC004
     FM241300 14007KT 3SM -DZ BR OVC004
     FM241700 VRB04KT P6SM SCT070 BKN150=

USA.gov is the U.S. government's official web portal to all federal, state and local government web resources and services.